sensor_id;sensor_type;location;lat;lon;timestamp;pressure;altitude;pressure_sealevel;temperature;humidity
3254;BME280;1639;42.804;23.342;2023-04-16T00:02:22;72798.56;;;-148.52;59.01
3254;BME280;1639;42.804;23.342;2023-04-16T00:04:48;72802.69;;;-148.52;58.58
3254;BME280;1639;42.804;23.342;2023-04-16T00:07:13;72810.97;;;-148.52;58.90
3254;BME280;1639;42.804;23.342;2023-04-16T00:09:39;72819.25;;;-148.52;59.06
3254;BME280;1639;42.804;23.342;2023-04-16T00:12:05;72831.66;;;-148.52;58.63
3254;BME280;1639;42.804;23.342;2023-04-16T00:14:31;72831.66;;;-148.52;58.69
3254;BME280;1639;42.804;23.342;2023-04-16T00:16:56;72844.06;;;-148.52;59.11
3254;BME280;1639;42.804;23.342;2023-04-16T00:19:21;72833.72;;;-148.52;59.49
3254;BME280;1639;42.804;23.342;2023-04-16T00:21:47;72842.00;;;-148.52;59.76
3254;BME280;1639;42.804;23.342;2023-04-16T00:24:12;72844.06;;;-148.52;59.65
3254;BME280;1639;42.804;23.342;2023-04-16T00:26:37;72873.00;;;-148.52;59.21
3254;BME280;1639;42.804;23.342;2023-04-16T00:29:03;72891.63;;;-148.52;59.37
3254;BME280;1639;42.804;23.342;2023-04-16T00:31:30;72906.09;;;-148.52;59.57
3254;BME280;1639;42.804;23.342;2023-04-16T00:33:56;72924.72;;;-148.52;59.93
3254;BME280;1639;42.804;23.342;2023-04-16T00:36:22;72926.78;;;-148.52;60.06
3254;BME280;1639;42.804;23.342;2023-04-16T00:38:48;72922.66;;;-148.52;59.78
3254;BME280;1639;42.804;23.342;2023-04-16T00:41:13;72922.66;;;-148.52;60.00
3254;BME280;1639;42.804;23.342;2023-04-16T00:43:39;72941.25;;;-148.52;60.42
3254;BME280;1639;42.804;23.342;2023-04-16T00:46:04;72928.84;;;-148.52;60.28
3254;BME280;1639;42.804;23.342;2023-04-16T00:48:36;72939.19;;;-148.52;60.87
3254;BME280;1639;42.804;23.342;2023-04-16T00:51:06;72949.53;;;-148.52;60.30
3254;BME280;1639;42.804;23.342;2023-04-16T00:53:32;72955.75;;;-148.52;59.68
3254;BME280;1639;42.804;23.342;2023-04-16T00:55:59;72947.47;;;-148.52;58.22
3254;BME280;1639;42.804;23.342;2023-04-16T00:58:27;72939.19;;;-148.52;57.12
3254;BME280;1639;42.804;23.342;2023-04-16T01:00:53;72945.41;;;-148.52;57.49
3254;BME280;1639;42.804;23.342;2023-04-16T01:03:19;72939.19;;;-148.52;56.68
3254;BME280;1639;42.804;23.342;2023-04-16T01:05:44;72935.06;;;-148.52;56.95
3254;BME280;1639;42.804;23.342;2023-04-16T01:08:17;72926.78;;;-148.52;57.44
3254;BME280;1639;42.804;23.342;2023-04-16T01:10:43;72920.56;;;-148.52;57.72
3254;BME280;1639;42.804;23.342;2023-04-16T01:13:09;72914.38;;;-148.52;57.55
3254;BME280;1639;42.804;23.342;2023-04-16T01:15:34;72901.97;;;-148.52;57.50
3254;BME280;1639;42.804;23.342;2023-04-16T01:18:00;72899.91;;;-148.52;57.40
3254;BME280;1639;42.804;23.342;2023-04-16T01:20:25;72904.03;;;-148.52;56.47
3254;BME280;1639;42.804;23.342;2023-04-16T01:22:50;72912.31;;;-148.52;57.38
3254;BME280;1639;42.804;23.342;2023-04-16T01:25:16;72920.56;;;-148.52;57.53
3254;BME280;1639;42.804;23.342;2023-04-16T01:27:41;72922.66;;;-148.52;57.88
3254;BME280;1639;42.804;23.342;2023-04-16T01:30:07;72924.72;;;-148.52;58.01
3254;BME280;1639;42.804;23.342;2023-04-16T01:32:32;72947.47;;;-148.52;57.65
3254;BME280;1639;42.804;23.342;2023-04-16T01:34:58;72943.31;;;-148.52;57.81
3254;BME280;1639;42.804;23.342;2023-04-16T01:37:23;72951.59;;;-148.52;57.80
3254;BME280;1639;42.804;23.342;2023-04-16T01:39:48;72949.53;;;-148.52;57.40
3254;BME280;1639;42.804;23.342;2023-04-16T01:42:14;72959.88;;;-148.52;58.02
3254;BME280;1639;42.804;23.342;2023-04-16T01:44:39;72974.34;;;-148.52;58.71
3254;BME280;1639;42.804;23.342;2023-04-16T01:47:04;72978.50;;;-148.52;59.18
3254;BME280;1639;42.804;23.342;2023-04-16T01:49:30;72978.50;;;-148.52;58.73
3254;BME280;1639;42.804;23.342;2023-04-16T01:51:55;72978.50;;;-148.52;59.23
3254;BME280;1639;42.804;23.342;2023-04-16T01:54:21;72990.91;;;-148.52;60.00
3254;BME280;1639;42.804;23.342;2023-04-16T01:56:46;73005.38;;;-148.52;60.21
3254;BME280;1639;42.804;23.342;2023-04-16T01:59:11;73003.31;;;-148.52;60.48
3254;BME280;1639;42.804;23.342;2023-04-16T02:01:37;73001.25;;;-148.52;60.83
3254;BME280;1639;42.804;23.342;2023-04-16T02:04:03;73009.50;;;-148.52;60.67
3254;BME280;1639;42.804;23.342;2023-04-16T02:06:29;73001.25;;;-148.52;61.28
3254;BME280;1639;42.804;23.342;2023-04-16T02:08:55;73009.50;;;-148.52;61.21
3254;BME280;1639;42.804;23.342;2023-04-16T02:11:21;73017.78;;;-148.52;62.14
3254;BME280;1639;42.804;23.342;2023-04-16T02:13:46;73015.72;;;-148.52;61.79
3254;BME280;1639;42.804;23.342;2023-04-16T02:16:11;73013.66;;;-148.52;62.11
3254;BME280;1639;42.804;23.342;2023-04-16T02:18:37;72999.16;;;-148.52;61.69
3254;BME280;1639;42.804;23.342;2023-04-16T02:21:02;72990.91;;;-148.52;61.52
3254;BME280;1639;42.804;23.342;2023-04-16T02:23:28;72988.81;;;-148.52;61.77
3254;BME280;1639;42.804;23.342;2023-04-16T02:25:53;72992.97;;;-148.52;62.17
3254;BME280;1639;42.804;23.342;2023-04-16T02:28:18;73013.66;;;-148.52;61.47
3254;BME280;1639;42.804;23.342;2023-04-16T02:30:44;73011.56;;;-148.52;61.96
3254;BME280;1639;42.804;23.342;2023-04-16T02:33:10;73030.19;;;-148.52;61.47
3254;BME280;1639;42.804;23.342;2023-04-16T02:35:37;73036.41;;;-148.52;61.85
3254;BME280;1639;42.804;23.342;2023-04-16T02:38:03;73044.66;;;-148.52;62.43
3254;BME280;1639;42.804;23.342;2023-04-16T02:40:29;73046.75;;;-148.52;62.59
3254;BME280;1639;42.804;23.342;2023-04-16T02:42:56;73046.75;;;-148.52;62.48
3254;BME280;1639;42.804;23.342;2023-04-16T02:45:23;73052.94;;;-148.52;63.07
3254;BME280;1639;42.804;23.342;2023-04-16T02:47:49;73055.00;;;-148.52;62.37
3254;BME280;1639;42.804;23.342;2023-04-16T02:50:16;73057.09;;;-148.52;62.80
3254;BME280;1639;42.804;23.342;2023-04-16T02:52:41;73067.41;;;-148.52;63.57
3254;BME280;1639;42.804;23.342;2023-04-16T02:55:07;73079.84;;;-148.52;63.82
3254;BME280;1639;42.804;23.342;2023-04-16T02:57:33;73096.38;;;-148.52;64.83
3254;BME280;1639;42.804;23.342;2023-04-16T02:59:58;73110.84;;;-148.52;66.47
3254;BME280;1639;42.804;23.342;2023-04-16T03:02:24;73123.25;;;-148.52;66.95
3254;BME280;1639;42.804;23.342;2023-04-16T03:04:49;73125.34;;;-148.52;66.95
3254;BME280;1639;42.804;23.342;2023-04-16T03:07:15;73127.41;;;-148.52;66.88
3254;BME280;1639;42.804;23.342;2023-04-16T03:09:42;73137.75;;;-148.52;66.84
3254;BME280;1639;42.804;23.342;2023-04-16T03:12:08;73143.94;;;-148.52;66.67
3254;BME280;1639;42.804;23.342;2023-04-16T03:14:33;73152.22;;;-148.52;66.50
3254;BME280;1639;42.804;23.342;2023-04-16T03:16:58;73150.16;;;-148.52;66.32
3254;BME280;1639;42.804;23.342;2023-04-16T03:19:24;73160.50;;;-148.52;66.85
3254;BME280;1639;42.804;23.342;2023-04-16T03:21:50;73174.97;;;-148.52;67.28
3254;BME280;1639;42.804;23.342;2023-04-16T03:24:15;73189.44;;;-148.52;67.79
3254;BME280;1639;42.804;23.342;2023-04-16T03:26:40;73208.06;;;-148.52;68.61
3254;BME280;1639;42.804;23.342;2023-04-16T03:29:06;73206.00;;;-148.52;69.15
3254;BME280;1639;42.804;23.342;2023-04-16T03:31:31;73199.78;;;-148.52;70.19
3254;BME280;1639;42.804;23.342;2023-04-16T03:33:57;73183.25;;;-148.52;70.37
3254;BME280;1639;42.804;23.342;2023-04-16T03:36:22;73183.25;;;-148.52;70.60
3254;BME280;1639;42.804;23.342;2023-04-16T03:38:48;73187.38;;;-148.52;71.55
3254;BME280;1639;42.804;23.342;2023-04-16T03:41:13;73199.78;;;-148.52;72.26
3254;BME280;1639;42.804;23.342;2023-04-16T03:43:39;73203.94;;;-148.52;73.48
3254;BME280;1639;42.804;23.342;2023-04-16T03:46:05;73210.13;;;-148.52;73.95
3254;BME280;1639;42.804;23.342;2023-04-16T03:48:30;73212.19;;;-148.52;74.17
3254;BME280;1639;42.804;23.342;2023-04-16T03:50:55;73206.00;;;-148.52;75.73
3254;BME280;1639;42.804;23.342;2023-04-16T03:53:21;73208.06;;;-148.52;75.55
3254;BME280;1639;42.804;23.342;2023-04-16T03:55:49;73206.00;;;-148.52;75.69
3254;BME280;1639;42.804;23.342;2023-04-16T03:58:18;73187.38;;;-148.52;74.92
3254;BME280;1639;42.804;23.342;2023-04-16T04:00:44;73170.84;;;-148.52;74.82
3254;BME280;1639;42.804;23.342;2023-04-16T04:03:09;73164.63;;;-148.52;74.71
3254;BME280;1639;42.804;23.342;2023-04-16T04:05:39;73177.03;;;-148.52;74.11
3254;BME280;1639;42.804;23.342;2023-04-16T04:08:05;73162.56;;;-148.52;73.25
3254;BME280;1639;42.804;23.342;2023-04-16T04:10:33;73143.94;;;-148.52;73.57
3254;BME280;1639;42.804;23.342;2023-04-16T04:13:01;73131.53;;;-148.52;73.72
3254;BME280;1639;42.804;23.342;2023-04-16T04:15:27;73125.34;;;-148.52;73.14
3254;BME280;1639;42.804;23.342;2023-04-16T04:17:52;73104.66;;;-148.52;72.85
3254;BME280;1639;42.804;23.342;2023-04-16T04:20:17;73092.25;;;-148.52;72.88
3254;BME280;1639;42.804;23.342;2023-04-16T04:22:43;73075.69;;;-148.52;72.65
3254;BME280;1639;42.804;23.342;2023-04-16T04:25:11;73073.63;;;-148.52;72.57
3254;BME280;1639;42.804;23.342;2023-04-16T04:27:37;73063.28;;;-148.52;72.73
3254;BME280;1639;42.804;23.342;2023-04-16T04:30:02;73048.81;;;-148.52;72.74
3254;BME280;1639;42.804;23.342;2023-04-16T04:32:30;73034.34;;;-148.52;71.65
3254;BME280;1639;42.804;23.342;2023-04-16T04:34:56;73021.91;;;-148.52;70.67
3254;BME280;1639;42.804;23.342;2023-04-16T04:37:22;73017.78;;;-148.52;69.49
3254;BME280;1639;42.804;23.342;2023-04-16T04:39:47;73024.00;;;-148.52;69.30
3254;BME280;1639;42.804;23.342;2023-04-16T04:42:13;73026.06;;;-148.52;68.28
3254;BME280;1639;42.804;23.342;2023-04-16T04:44:38;73013.66;;;-148.52;68.17
3254;BME280;1639;42.804;23.342;2023-04-16T04:47:03;73013.66;;;-148.52;67.83
3254;BME280;1639;42.804;23.342;2023-04-16T04:49:29;73017.78;;;-148.52;67.15
3254;BME280;1639;42.804;23.342;2023-04-16T04:51:55;73021.91;;;-148.52;67.18
3254;BME280;1639;42.804;23.342;2023-04-16T04:54:20;73021.91;;;-148.52;67.71
3254;BME280;1639;42.804;23.342;2023-04-16T04:56:46;73015.72;;;-148.52;67.76
3254;BME280;1639;42.804;23.342;2023-04-16T04:59:11;73034.34;;;-148.52;68.90
3254;BME280;1639;42.804;23.342;2023-04-16T05:01:37;73030.19;;;-148.52;68.93
3254;BME280;1639;42.804;23.342;2023-04-16T05:04:02;73038.47;;;-148.52;68.23
3254;BME280;1639;42.804;23.342;2023-04-16T05:06:28;73024.00;;;-148.52;68.04
3254;BME280;1639;42.804;23.342;2023-04-16T05:08:53;73024.00;;;-148.52;66.69
3254;BME280;1639;42.804;23.342;2023-04-16T05:11:18;73017.78;;;-148.52;67.09
3254;BME280;1639;42.804;23.342;2023-04-16T05:13:44;73021.91;;;-148.52;67.24
3254;BME280;1639;42.804;23.342;2023-04-16T05:16:09;73005.38;;;-148.52;67.37
3254;BME280;1639;42.804;23.342;2023-04-16T05:18:35;73001.25;;;-148.52;67.35
3254;BME280;1639;42.804;23.342;2023-04-16T05:21:00;72992.97;;;-148.52;67.20
3254;BME280;1639;42.804;23.342;2023-04-16T05:23:26;72972.28;;;-148.52;67.14
3254;BME280;1639;42.804;23.342;2023-04-16T05:25:51;72961.94;;;-148.52;66.94
3254;BME280;1639;42.804;23.342;2023-04-16T05:28:16;72947.47;;;-148.52;66.51
3254;BME280;1639;42.804;23.342;2023-04-16T05:30:42;72945.41;;;-148.52;67.27
3254;BME280;1639;42.804;23.342;2023-04-16T05:33:07;72926.78;;;-148.52;66.87
3254;BME280;1639;42.804;23.342;2023-04-16T05:35:32;72914.38;;;-148.52;68.13
3254;BME280;1639;42.804;23.342;2023-04-16T05:37:59;72912.31;;;-148.52;68.10
3254;BME280;1639;42.804;23.342;2023-04-16T05:40:24;72901.97;;;-148.52;69.15
3254;BME280;1639;42.804;23.342;2023-04-16T05:42:50;72891.63;;;-148.52;69.73
3254;BME280;1639;42.804;23.342;2023-04-16T05:45:15;72891.63;;;-148.52;68.90
3254;BME280;1639;42.804;23.342;2023-04-16T05:47:41;72873.00;;;-148.52;69.19
3254;BME280;1639;42.804;23.342;2023-04-16T05:50:06;72862.66;;;-148.52;67.30
3254;BME280;1639;42.804;23.342;2023-04-16T05:52:32;72858.53;;;-148.52;66.90
3254;BME280;1639;42.804;23.342;2023-04-16T05:54:57;72854.41;;;-148.52;67.82
3254;BME280;1639;42.804;23.342;2023-04-16T05:57:26;72839.91;;;-148.52;67.14
3254;BME280;1639;42.804;23.342;2023-04-16T05:59:52;72825.44;;;-148.52;64.84
3254;BME280;1639;42.804;23.342;2023-04-16T06:02:17;72806.81;;;-148.52;65.08
3254;BME280;1639;42.804;23.342;2023-04-16T06:04:43;72813.03;;;-148.52;64.96
3254;BME280;1639;42.804;23.342;2023-04-16T06:07:09;72808.91;;;-148.52;65.23
3254;BME280;1639;42.804;23.342;2023-04-16T06:09:35;72810.97;;;-148.52;65.92
3254;BME280;1639;42.804;23.342;2023-04-16T06:12:01;72817.16;;;-148.52;67.13
3254;BME280;1639;42.804;23.342;2023-04-16T06:14:26;72810.97;;;-148.52;68.50
3254;BME280;1639;42.804;23.342;2023-04-16T06:16:51;72806.81;;;-148.52;69.24
3254;BME280;1639;42.804;23.342;2023-04-16T06:19:17;72786.16;;;-148.52;68.41
3254;BME280;1639;42.804;23.342;2023-04-16T06:21:42;72773.75;;;-148.52;67.83
3254;BME280;1639;42.804;23.342;2023-04-16T06:24:08;72773.75;;;-148.52;68.38
3254;BME280;1639;42.804;23.342;2023-04-16T06:26:33;72744.78;;;-148.52;67.92
3254;BME280;1639;42.804;23.342;2023-04-16T06:28:59;72722.03;;;-148.52;66.63
3254;BME280;1639;42.804;23.342;2023-04-16T06:31:25;72701.34;;;-148.52;65.94
3254;BME280;1639;42.804;23.342;2023-04-16T06:33:50;72676.53;;;-148.52;64.81
3254;BME280;1639;42.804;23.342;2023-04-16T06:36:16;72651.72;;;-148.52;62.72
3254;BME280;1639;42.804;23.342;2023-04-16T06:38:41;72631.03;;;-148.52;60.82
3254;BME280;1639;42.804;23.342;2023-04-16T06:41:07;72600.03;;;-148.52;59.72
3254;BME280;1639;42.804;23.342;2023-04-16T06:43:32;72575.22;;;-148.52;58.31
3254;BME280;1639;42.804;23.342;2023-04-16T06:45:58;72556.59;;;-148.52;58.47
3254;BME280;1639;42.804;23.342;2023-04-16T06:48:24;72533.84;;;-148.52;58.38
3254;BME280;1639;42.804;23.342;2023-04-16T06:50:49;72517.31;;;-148.52;57.66
3254;BME280;1639;42.804;23.342;2023-04-16T06:53:15;72500.75;;;-148.52;57.44
3254;BME280;1639;42.804;23.342;2023-04-16T06:55:40;72486.28;;;-148.52;57.01
3254;BME280;1639;42.804;23.342;2023-04-16T06:58:06;72463.53;;;-148.52;57.32
3254;BME280;1639;42.804;23.342;2023-04-16T07:00:32;72463.53;;;-148.52;57.07
3254;BME280;1639;42.804;23.342;2023-04-16T07:03:00;72455.25;;;-148.52;57.32
3254;BME280;1639;42.804;23.342;2023-04-16T07:05:25;72436.66;;;-148.52;58.94
3254;BME280;1639;42.804;23.342;2023-04-16T07:07:51;72393.22;;;-148.52;55.80
3254;BME280;1639;42.804;23.342;2023-04-16T07:10:16;72364.28;;;-148.52;55.84
3254;BME280;1639;42.804;23.342;2023-04-16T07:12:42;72325.00;;;-148.52;55.21
3254;BME280;1639;42.804;23.342;2023-04-16T07:15:08;72293.97;;;-148.52;51.61
3254;BME280;1639;42.804;23.342;2023-04-16T07:17:34;72331.19;;;-148.52;50.04
3254;BME280;1639;42.804;23.342;2023-04-16T07:19:59;72310.50;;;-148.52;51.44
3254;BME280;1639;42.804;23.342;2023-04-16T07:22:24;72304.31;;;-148.52;49.64
3254;BME280;1639;42.804;23.342;2023-04-16T07:24:50;72331.19;;;-148.52;51.95
3254;BME280;1639;42.804;23.342;2023-04-16T07:27:15;72356.00;;;-148.52;51.00
3254;BME280;1639;42.804;23.342;2023-04-16T07:29:41;72320.84;;;-148.52;51.11
3254;BME280;1639;42.804;23.342;2023-04-16T07:32:06;72337.41;;;-148.52;51.82
3254;BME280;1639;42.804;23.342;2023-04-16T07:34:32;72368.41;;;-148.52;52.61
3254;BME280;1639;42.804;23.342;2023-04-16T07:36:57;72351.88;;;-148.52;51.37
3254;BME280;1639;42.804;23.342;2023-04-16T07:39:23;72368.41;;;-148.52;53.83
3254;BME280;1639;42.804;23.342;2023-04-16T07:41:48;72372.56;;;-148.52;53.14
3254;BME280;1639;42.804;23.342;2023-04-16T07:44:13;72347.72;;;-148.52;52.91
3254;BME280;1639;42.804;23.342;2023-04-16T07:46:39;72320.84;;;-148.52;52.54
3254;BME280;1639;42.804;23.342;2023-04-16T07:49:04;72279.50;;;-148.52;51.57
3254;BME280;1639;42.804;23.342;2023-04-16T07:51:30;72260.88;;;-148.52;50.17
3254;BME280;1639;42.804;23.342;2023-04-16T07:53:55;72229.88;;;-148.52;50.24
3254;BME280;1639;42.804;23.342;2023-04-16T07:56:20;72221.59;;;-148.52;49.88
3254;BME280;1639;42.804;23.342;2023-04-16T07:58:46;72217.47;;;-148.52;49.58
3254;BME280;1639;42.804;23.342;2023-04-16T08:01:11;72219.53;;;-148.52;49.26
3254;BME280;1639;42.804;23.342;2023-04-16T08:03:37;72227.78;;;-148.52;49.99
3254;BME280;1639;42.804;23.342;2023-04-16T08:06:03;72219.53;;;-148.52;48.46
3254;BME280;1639;42.804;23.342;2023-04-16T08:08:28;72219.53;;;-148.52;48.32
3254;BME280;1639;42.804;23.342;2023-04-16T08:10:54;72176.09;;;-148.52;47.57
3254;BME280;1639;42.804;23.342;2023-04-16T08:13:23;72155.44;;;-148.52;46.96
3254;BME280;1639;42.804;23.342;2023-04-16T08:15:49;72153.34;;;-148.52;47.34
3254;BME280;1639;42.804;23.342;2023-04-16T08:18:15;72153.34;;;-148.52;45.71
3254;BME280;1639;42.804;23.342;2023-04-16T08:20:41;72186.44;;;-148.52;45.85
3254;BME280;1639;42.804;23.342;2023-04-16T08:23:06;72180.25;;;-148.52;46.16
3254;BME280;1639;42.804;23.342;2023-04-16T08:25:31;72161.63;;;-148.52;45.88
3254;BME280;1639;42.804;23.342;2023-04-16T08:27:57;72155.44;;;-148.52;47.42
3254;BME280;1639;42.804;23.342;2023-04-16T08:30:22;72140.94;;;-148.52;46.40
3254;BME280;1639;42.804;23.342;2023-04-16T08:32:48;72122.34;;;-148.52;44.80
3254;BME280;1639;42.804;23.342;2023-04-16T08:35:14;72089.25;;;-148.52;44.34
3254;BME280;1639;42.804;23.342;2023-04-16T08:37:39;72033.44;;;-148.52;44.83
3254;BME280;1639;42.804;23.342;2023-04-16T08:40:05;71950.72;;;-148.52;44.57
3254;BME280;1639;42.804;23.342;2023-04-16T08:42:39;71923.84;;;-148.52;43.30
3254;BME280;1639;42.804;23.342;2023-04-16T08:45:16;71923.84;;;-148.52;43.49
3254;BME280;1639;42.804;23.342;2023-04-16T08:47:46;71909.38;;;-148.52;41.02
3254;BME280;1639;42.804;23.342;2023-04-16T08:50:14;71925.91;;;-148.52;42.53
3254;BME280;1639;42.804;23.342;2023-04-16T08:52:57;71909.38;;;-148.52;42.20
3254;BME280;1639;42.804;23.342;2023-04-16T08:55:38;71876.28;;;-148.52;41.09
3254;BME280;1639;42.804;23.342;2023-04-16T08:58:08;71810.13;;;-148.52;42.29
3254;BME280;1639;42.804;23.342;2023-04-16T09:00:36;71785.31;;;-148.52;39.66
3254;BME280;1639;42.804;23.342;2023-04-16T09:03:02;71764.63;;;-148.52;39.67
3254;BME280;1639;42.804;23.342;2023-04-16T09:05:28;71789.44;;;-148.52;41.25
3254;BME280;1639;42.804;23.342;2023-04-16T09:07:54;71752.22;;;-148.52;40.63
3254;BME280;1639;42.804;23.342;2023-04-16T09:10:19;71721.22;;;-148.52;40.72
3254;BME280;1639;42.804;23.342;2023-04-16T09:12:45;71702.59;;;-148.52;39.78
3254;BME280;1639;42.804;23.342;2023-04-16T09:15:11;71723.28;;;-148.52;38.11
3254;BME280;1639;42.804;23.342;2023-04-16T09:17:37;71717.09;;;-148.52;38.26
3254;BME280;1639;42.804;23.342;2023-04-16T09:20:05;71717.09;;;-148.52;38.76
3254;BME280;1639;42.804;23.342;2023-04-16T09:22:32;71733.63;;;-148.52;37.91
3254;BME280;1639;42.804;23.342;2023-04-16T09:24:58;71715.00;;;-148.52;38.87
3254;BME280;1639;42.804;23.342;2023-04-16T09:27:24;71729.50;;;-148.52;38.14
3254;BME280;1639;42.804;23.342;2023-04-16T09:29:49;71743.97;;;-148.52;38.06
3254;BME280;1639;42.804;23.342;2023-04-16T09:32:15;71820.47;;;-148.52;40.71
3254;BME280;1639;42.804;23.342;2023-04-16T09:34:57;71826.66;;;-148.52;39.86
3254;BME280;1639;42.804;23.342;2023-04-16T09:37:24;71876.28;;;-148.52;40.44
3254;BME280;1639;42.804;23.342;2023-04-16T09:40:00;71810.13;;;-148.52;40.34
3254;BME280;1639;42.804;23.342;2023-04-16T09:42:31;71777.03;;;-148.52;39.55
3254;BME280;1639;42.804;23.342;2023-04-16T09:44:57;71750.16;;;-148.52;40.05
3254;BME280;1639;42.804;23.342;2023-04-16T09:47:25;71729.50;;;-148.52;39.28
3254;BME280;1639;42.804;23.342;2023-04-16T09:50:02;71754.28;;;-148.52;39.28
3254;BME280;1639;42.804;23.342;2023-04-16T09:52:27;71764.63;;;-148.52;39.63
3254;BME280;1639;42.804;23.342;2023-04-16T09:54:53;71822.53;;;-148.52;41.26
3254;BME280;1639;42.804;23.342;2023-04-16T09:57:20;71752.22;;;-148.52;39.91
3254;BME280;1639;42.804;23.342;2023-04-16T09:59:46;71743.97;;;-148.52;40.07
3254;BME280;1639;42.804;23.342;2023-04-16T10:02:12;71708.81;;;-148.52;40.97
3254;BME280;1639;42.804;23.342;2023-04-16T10:04:48;71719.16;;;-148.52;39.27
3254;BME280;1639;42.804;23.342;2023-04-16T10:07:14;71694.34;;;-148.52;40.18
3254;BME280;1639;42.804;23.342;2023-04-16T10:09:39;71675.72;;;-148.52;38.50
3254;BME280;1639;42.804;23.342;2023-04-16T10:12:06;71650.91;;;-148.52;38.55
3254;BME280;1639;42.804;23.342;2023-04-16T10:14:32;71609.56;;;-148.52;39.51
3254;BME280;1639;42.804;23.342;2023-04-16T10:16:58;71630.25;;;-148.52;36.96
3254;BME280;1639;42.804;23.342;2023-04-16T10:19:24;71657.13;;;-148.52;37.95
3254;BME280;1639;42.804;23.342;2023-04-16T10:21:51;71727.41;;;-148.52;38.70
3254;BME280;1639;42.804;23.342;2023-04-16T10:24:17;71731.56;;;-148.52;38.72
3254;BME280;1639;42.804;23.342;2023-04-16T10:26:43;71737.75;;;-148.52;38.59
3254;BME280;1639;42.804;23.342;2023-04-16T10:29:10;71729.50;;;-148.52;38.14
3254;BME280;1639;42.804;23.342;2023-04-16T10:31:37;71706.75;;;-148.52;39.11
3254;BME280;1639;42.804;23.342;2023-04-16T10:34:03;71727.41;;;-148.52;38.00
3254;BME280;1639;42.804;23.342;2023-04-16T10:36:29;71739.81;;;-148.52;39.98
3254;BME280;1639;42.804;23.342;2023-04-16T10:38:58;71752.22;;;-148.52;39.31
3254;BME280;1639;42.804;23.342;2023-04-16T10:41:25;71768.78;;;-148.52;40.99
3254;BME280;1639;42.804;23.342;2023-04-16T10:43:51;71766.69;;;-148.52;39.56
3254;BME280;1639;42.804;23.342;2023-04-16T10:48:42;71739.81;;;-148.52;38.40
3254;BME280;1639;42.804;23.342;2023-04-16T10:51:22;71710.88;;;-148.52;38.70
3254;BME280;1639;42.804;23.342;2023-04-16T10:53:48;71723.28;;;-148.52;37.84
3254;BME280;1639;42.804;23.342;2023-04-16T10:56:16;71669.53;;;-148.52;38.62
3254;BME280;1639;42.804;23.342;2023-04-16T10:58:46;71644.72;;;-148.52;37.93
3254;BME280;1639;42.804;23.342;2023-04-16T11:01:12;71603.38;;;-148.52;38.26
3254;BME280;1639;42.804;23.342;2023-04-16T11:03:42;71566.16;;;-148.52;37.09
3254;BME280;1639;42.804;23.342;2023-04-16T11:06:11;71531.00;;;-148.52;36.05
3254;BME280;1639;42.804;23.342;2023-04-16T11:08:38;71491.72;;;-148.52;35.87
3254;BME280;1639;42.804;23.342;2023-04-16T11:11:04;71464.84;;;-148.52;35.20
3254;BME280;1639;42.804;23.342;2023-04-16T11:13:31;71462.78;;;-148.52;34.59
3254;BME280;1639;42.804;23.342;2023-04-16T11:15:57;71413.16;;;-148.52;34.39
3254;BME280;1639;42.804;23.342;2023-04-16T11:18:23;71384.22;;;-148.52;34.89
3254;BME280;1639;42.804;23.342;2023-04-16T11:20:50;71373.88;;;-148.52;33.86
3254;BME280;1639;42.804;23.342;2023-04-16T11:23:15;71402.81;;;-148.52;33.48
3254;BME280;1639;42.804;23.342;2023-04-16T11:25:41;71423.50;;;-148.52;34.71
3254;BME280;1639;42.804;23.342;2023-04-16T11:28:06;71444.19;;;-148.52;33.40
3254;BME280;1639;42.804;23.342;2023-04-16T11:30:33;71450.38;;;-148.52;33.32
3254;BME280;1639;42.804;23.342;2023-04-16T11:33:08;71450.38;;;-148.52;34.20
3254;BME280;1639;42.804;23.342;2023-04-16T11:35:35;71450.38;;;-148.52;33.75
3254;BME280;1639;42.804;23.342;2023-04-16T11:38:01;71437.97;;;-148.52;34.11
3254;BME280;1639;42.804;23.342;2023-04-16T11:40:30;71435.91;;;-148.52;34.39
3254;BME280;1639;42.804;23.342;2023-04-16T11:43:03;71419.38;;;-148.52;34.01
3254;BME280;1639;42.804;23.342;2023-04-16T11:45:29;71406.97;;;-148.52;34.86
3254;BME280;1639;42.804;23.342;2023-04-16T11:47:54;71375.94;;;-148.52;33.83
3254;BME280;1639;42.804;23.342;2023-04-16T11:50:24;71353.22;;;-148.52;33.52
3254;BME280;1639;42.804;23.342;2023-04-16T11:52:52;71359.41;;;-148.52;33.41
3254;BME280;1639;42.804;23.342;2023-04-16T11:55:18;71361.47;;;-148.52;32.13
3254;BME280;1639;42.804;23.342;2023-04-16T11:57:44;71375.94;;;-148.52;33.66
3254;BME280;1639;42.804;23.342;2023-04-16T12:00:10;71396.63;;;-148.52;33.56
3254;BME280;1639;42.804;23.342;2023-04-16T12:02:43;71444.19;;;-148.52;34.04
3254;BME280;1639;42.804;23.342;2023-04-16T12:05:32;71421.44;;;-148.52;34.12
3254;BME280;1639;42.804;23.342;2023-04-16T12:08:04;71415.22;;;-148.52;33.68
3254;BME280;1639;42.804;23.342;2023-04-16T12:10:32;71413.16;;;-148.52;35.69
3254;BME280;1639;42.804;23.342;2023-04-16T12:13:13;71392.50;;;-148.52;34.82
3254;BME280;1639;42.804;23.342;2023-04-16T12:15:49;71371.81;;;-148.52;34.86
3254;BME280;1639;42.804;23.342;2023-04-16T12:18:19;71375.94;;;-148.52;33.36
3254;BME280;1639;42.804;23.342;2023-04-16T12:20:46;71351.13;;;-148.52;34.86
3254;BME280;1639;42.804;23.342;2023-04-16T12:23:32;71338.75;;;-148.52;33.49
3254;BME280;1639;42.804;23.342;2023-04-16T12:25:58;71328.41;;;-148.52;33.67
3254;BME280;1639;42.804;23.342;2023-04-16T12:28:35;71322.19;;;-148.52;33.96
3254;BME280;1639;42.804;23.342;2023-04-16T12:31:03;71305.66;;;-148.52;33.72
3254;BME280;1639;42.804;23.342;2023-04-16T12:33:29;71299.47;;;-148.52;32.72
3254;BME280;1639;42.804;23.342;2023-04-16T12:35:55;71282.91;;;-148.52;33.45
3254;BME280;1639;42.804;23.342;2023-04-16T12:38:21;71284.97;;;-148.52;34.19
3254;BME280;1639;42.804;23.342;2023-04-16T12:40:46;71272.59;;;-148.52;32.64
3254;BME280;1639;42.804;23.342;2023-04-16T12:43:11;71258.13;;;-148.52;34.10
3254;BME280;1639;42.804;23.342;2023-04-16T12:45:38;71251.91;;;-148.52;33.14
3254;BME280;1639;42.804;23.342;2023-04-16T12:48:03;71268.44;;;-148.52;33.25
3254;BME280;1639;42.804;23.342;2023-04-16T12:50:29;71282.91;;;-148.52;34.04